createdAt,value
2022-09-30T00:01:07.363Z,7.88
2022-09-30T00:03:33.885Z,6.80
2022-09-30T00:06:07.926Z,7.53
2022-09-30T00:08:36.450Z,8.65
2022-09-30T00:11:09.378Z,8.73
2022-09-30T00:13:38.290Z,7.53
2022-09-30T00:16:05.348Z,9.32
2022-09-30T00:18:32.584Z,9.82
2022-09-30T00:20:59.856Z,8.40
2022-09-30T00:23:26.435Z,7.80
2022-09-30T00:25:58.958Z,9.23
2022-09-30T00:28:26.004Z,10.48
2022-09-30T00:30:52.799Z,8.80
2022-09-30T00:33:19.404Z,9.88
2022-09-30T00:35:45.929Z,9.30
2022-09-30T00:38:12.453Z,9.70
2022-09-30T00:40:39.325Z,8.68
2022-09-30T00:43:17.445Z,10.98
2022-09-30T00:45:53.901Z,9.23
2022-09-30T00:48:34.217Z,10.60
2022-09-30T00:51:02.887Z,10.90
2022-09-30T00:53:48.434Z,10.73
2022-09-30T00:56:24.502Z,8.35
2022-09-30T00:58:59.928Z,9.75
2022-09-30T01:01:27.016Z,10.02
2022-09-30T01:04:05.704Z,9.88
2022-09-30T01:06:32.405Z,9.02
2022-09-30T01:08:59.095Z,11.65
2022-09-30T01:11:27.800Z,10.48
2022-09-30T01:13:58.069Z,11.50
2022-09-30T01:16:53.613Z,10.10
2022-09-30T01:19:40.041Z,9.73
2022-09-30T01:22:20.614Z,9.43
2022-09-30T01:24:50.033Z,10.68
2022-09-30T01:27:50.085Z,12.48
2022-09-30T01:30:21.543Z,9.52
2022-09-30T01:33:02.133Z,10.50
2022-09-30T01:35:34.411Z,11.02
2022-09-30T01:38:28.706Z,10.35
2022-09-30T01:41:05.790Z,14.25
2022-09-30T01:43:32.355Z,9.98
2022-09-30T01:46:21.041Z,12.27
2022-09-30T01:48:50.432Z,10.75
2022-09-30T01:51:27.192Z,15.52
2022-09-30T01:54:05.359Z,9.50
2022-09-30T01:56:42.006Z,11.15
2022-09-30T01:59:17.129Z,9.35
2022-09-30T02:02:04.560Z,14.27
2022-09-30T02:04:43.096Z,13.15
2022-09-30T02:07:16.192Z,12.35
2022-09-30T02:12:21.587Z,10.35
2022-09-30T02:14:55.731Z,12.07
2022-09-30T02:17:43.245Z,9.43
2022-09-30T02:20:15.657Z,9.98
2022-09-30T02:23:16.312Z,10.88
2022-09-30T02:25:47.328Z,11.25
2022-09-30T02:28:20.920Z,9.70
2022-09-30T02:30:52.492Z,12.35
2022-09-30T02:34:01.180Z,9.82
2022-09-30T02:36:37.550Z,11.35
2022-09-30T02:39:29.750Z,13.95
2022-09-30T02:42:06.670Z,9.00
2022-09-30T02:44:33.271Z,10.98
2022-09-30T02:47:10.710Z,9.77
2022-09-30T02:50:18.042Z,12.13
2022-09-30T02:52:52.942Z,11.02
2022-09-30T02:55:53.367Z,12.90
2022-09-30T02:58:25.976Z,10.38
2022-09-30T03:00:54.757Z,13.40
2022-09-30T03:03:21.283Z,12.32
2022-09-30T03:05:50.040Z,12.32
2022-09-30T03:08:16.978Z,13.23
2022-09-30T03:10:45.154Z,12.27
2022-09-30T03:13:48.954Z,16.33
2022-09-30T03:19:12.520Z,8.77
2022-09-30T03:21:57.435Z,9.20
2022-09-30T03:25:09.727Z,13.65
2022-09-30T03:28:08.483Z,9.93
2022-09-30T03:30:45.576Z,10.90
2022-09-30T03:33:27.829Z,12.40
2022-09-30T03:36:06.085Z,10.68
2022-09-30T03:39:13.940Z,10.93
2022-09-30T03:41:50.326Z,10.02
2022-09-30T03:44:20.715Z,10.93
2022-09-30T03:46:52.957Z,10.55
2022-09-30T03:49:25.594Z,12.50
2022-09-30T03:51:53.153Z,9.32
2022-09-30T03:54:19.945Z,14.20
2022-09-30T03:56:46.473Z,10.13
2022-09-30T03:59:23.140Z,10.05
2022-09-30T04:01:50.353Z,14.85
2022-09-30T04:04:16.964Z,9.32
2022-09-30T04:06:43.928Z,10.18
2022-09-30T04:09:10.585Z,12.40
2022-09-30T04:11:37.145Z,9.73
2022-09-30T04:14:03.841Z,8.63
2022-09-30T04:16:30.810Z,13.95
2022-09-30T04:18:57.497Z,9.90
2022-09-30T04:21:24.187Z,11.95
2022-09-30T04:23:50.954Z,10.73
2022-09-30T04:26:20.102Z,10.45
2022-09-30T04:28:47.036Z,16.00
2022-09-30T04:31:14.646Z,10.18
2022-09-30T04:33:41.283Z,12.20
2022-09-30T04:36:07.872Z,11.65
2022-09-30T04:38:34.412Z,10.55
2022-09-30T04:41:05.863Z,12.95
2022-09-30T04:43:34.281Z,11.65
2022-09-30T04:46:01.463Z,13.70
2022-09-30T04:48:30.357Z,12.35
2022-09-30T04:50:59.568Z,10.25
2022-09-30T04:53:26.292Z,11.80
2022-09-30T04:55:59.806Z,12.50
2022-09-30T04:58:26.701Z,12.32
2022-09-30T05:01:00.427Z,11.25
2022-09-30T05:03:27.122Z,12.23
2022-09-30T05:05:53.704Z,12.10
2022-09-30T05:08:20.670Z,11.75
2022-09-30T05:10:57.425Z,12.43
2022-09-30T05:13:25.550Z,14.35
2022-09-30T05:15:52.888Z,12.73
2022-09-30T05:18:20.514Z,13.75
2022-09-30T05:20:51.516Z,15.32
2022-09-30T05:23:19.678Z,13.70
2022-09-30T05:25:47.622Z,13.20
2022-09-30T05:28:15.030Z,11.50
2022-09-30T05:30:43.551Z,13.82
2022-09-30T05:33:10.782Z,12.80
2022-09-30T05:35:37.443Z,12.27
2022-09-30T05:38:04.758Z,11.82
2022-09-30T05:40:32.244Z,13.15
2022-09-30T05:42:59.816Z,11.52
2022-09-30T05:45:27.008Z,13.70
2022-09-30T05:47:54.310Z,12.77
2022-09-30T05:50:22.418Z,17.73
2022-09-30T05:52:49.631Z,17.15
2022-09-30T05:55:17.417Z,14.15
2022-09-30T05:57:46.163Z,14.55
2022-09-30T06:00:12.818Z,14.73
2022-09-30T06:02:39.612Z,13.90
2022-09-30T06:05:07.083Z,16.38
2022-09-30T06:07:34.603Z,14.35
2022-09-30T06:10:05.741Z,14.77
2022-09-30T06:12:32.307Z,16.83
2022-09-30T06:14:58.854Z,13.40
2022-09-30T06:17:25.412Z,12.40
2022-09-30T06:19:51.970Z,13.50
2022-09-30T06:22:18.782Z,12.65
2022-09-30T06:24:46.383Z,13.38
2022-09-30T06:27:13.525Z,14.48
2022-09-30T06:29:40.161Z,13.57
2022-09-30T06:32:07.804Z,12.65
2022-09-30T06:34:34.367Z,16.08
2022-09-30T06:37:01.434Z,14.40
2022-09-30T06:39:28.207Z,15.10
2022-09-30T06:41:56.407Z,14.35
2022-09-30T06:44:22.950Z,13.23
2022-09-30T06:46:53.962Z,18.77
2022-09-30T06:49:21.301Z,12.02
2022-09-30T06:51:47.838Z,17.48
2022-09-30T06:54:14.395Z,15.88
2022-09-30T06:56:41.040Z,14.55
2022-09-30T06:59:08.752Z,13.77
2022-09-30T07:01:35.343Z,15.32
2022-09-30T07:04:08.065Z,16.52
2022-09-30T07:06:34.646Z,12.93
2022-09-30T07:09:01.227Z,16.30
2022-09-30T07:11:27.799Z,15.38
2022-09-30T07:13:54.382Z,13.63
2022-09-30T07:16:21.500Z,13.18
2022-09-30T07:18:48.159Z,16.60
2022-09-30T07:21:16.397Z,13.65
2022-09-30T07:23:48.246Z,16.60
2022-09-30T07:26:20.933Z,14.70
2022-09-30T07:28:48.358Z,14.43
2022-09-30T07:31:35.288Z,14.82
2022-09-30T07:34:07.513Z,13.65
2022-09-30T07:36:35.716Z,15.20
2022-09-30T07:39:05.588Z,17.08
2022-09-30T07:41:33.389Z,13.35
2022-09-30T07:43:59.959Z,13.45
2022-09-30T07:46:30.764Z,17.08
2022-09-30T07:49:01.514Z,16.67
2022-09-30T07:51:33.441Z,13.63
2022-09-30T07:54:13.265Z,15.60
2022-09-30T07:57:08.183Z,15.93
2022-09-30T07:59:29.659Z,13.73
2022-09-30T08:01:56.612Z,15.10
2022-09-30T08:04:25.192Z,15.45
2022-09-30T08:06:55.222Z,16.92
2022-09-30T08:09:23.812Z,17.55
2022-09-30T08:11:50.985Z,16.92
2022-09-30T08:14:21.336Z,16.10
2022-09-30T08:16:48.336Z,16.48
2022-09-30T08:19:19.501Z,19.17
2022-09-30T08:21:47.081Z,15.98
2022-09-30T08:24:14.762Z,18.27
2022-09-30T08:26:41.552Z,16.27
2022-09-30T08:29:12.341Z,15.95
2022-09-30T08:31:41.871Z,19.90
2022-09-30T08:34:08.740Z,16.85
2022-09-30T08:36:35.305Z,16.42
2022-09-30T08:39:02.197Z,20.88
2022-09-30T08:42:02.210Z,17.50
2022-09-30T08:44:38.153Z,15.20
2022-09-30T08:47:35.595Z,14.77
2022-09-30T08:50:14.257Z,16.77
2022-09-30T08:52:49.120Z,15.63
2022-09-30T08:55:25.408Z,16.23
2022-09-30T08:57:55.194Z,16.40
2022-09-30T09:00:22.784Z,17.25
2022-09-30T09:02:54.924Z,15.05
2022-09-30T09:05:51.539Z,19.83
2022-09-30T09:09:07.000Z,15.27
2022-09-30T09:11:45.607Z,14.05
2022-09-30T09:14:53.658Z,17.83
2022-09-30T09:18:18.214Z,13.48
2022-09-30T09:20:42.815Z,14.63
2022-09-30T09:23:12.859Z,15.10
2022-09-30T09:25:39.843Z,15.63
2022-09-30T09:28:22.696Z,12.00
2022-09-30T09:30:55.824Z,22.02
2022-09-30T09:36:11.591Z,14.02
2022-09-30T09:39:01.282Z,14.15
2022-09-30T09:42:12.604Z,12.68
2022-09-30T09:44:41.839Z,11.52
2022-09-30T09:47:17.370Z,15.18
2022-09-30T09:49:55.155Z,16.50
2022-09-30T09:52:27.151Z,15.27
2022-09-30T09:54:56.805Z,14.50
2022-09-30T09:57:27.860Z,42.75
2022-09-30T10:00:28.954Z,11.85
2022-09-30T10:03:08.374Z,12.80
2022-09-30T10:05:42.437Z,14.50
2022-09-30T10:08:16.838Z,17.35
2022-09-30T10:10:44.877Z,14.13
2022-09-30T10:13:20.528Z,13.52
2022-09-30T10:15:48.500Z,14.68
2022-09-30T10:18:23.730Z,13.50
2022-09-30T10:21:02.505Z,13.68
2022-09-30T10:23:37.601Z,15.43
2022-09-30T10:26:17.849Z,10.63
2022-09-30T10:28:49.035Z,14.63
2022-09-30T10:31:27.142Z,11.75
2022-09-30T10:34:13.942Z,37.22
2022-09-30T10:36:43.496Z,11.63
2022-09-30T10:39:34.676Z,13.80
2022-09-30T10:42:26.243Z,13.90
2022-09-30T10:44:57.110Z,8.95
2022-09-30T10:47:26.429Z,11.63
2022-09-30T10:50:01.053Z,13.00
2022-09-30T10:52:33.009Z,12.05
2022-09-30T10:55:10.674Z,8.85
2022-09-30T10:57:40.450Z,10.18
2022-09-30T11:00:13.893Z,8.00
2022-09-30T11:02:48.307Z,10.05
2022-09-30T11:05:24.564Z,9.60
2022-09-30T11:08:21.986Z,8.00
2022-09-30T11:10:57.463Z,8.38
2022-09-30T11:13:37.521Z,11.30
2022-09-30T11:16:30.196Z,10.35
2022-09-30T11:19:04.115Z,6.60
2022-09-30T11:21:49.163Z,8.77
2022-09-30T11:24:32.702Z,7.05
2022-09-30T11:27:11.915Z,9.68
2022-09-30T11:30:12.475Z,5.63
2022-09-30T11:32:54.194Z,13.75
2022-09-30T11:35:42.085Z,5.05
2022-09-30T11:38:27.153Z,5.82
2022-09-30T11:41:05.808Z,7.85
2022-09-30T11:44:00.417Z,7.07
2022-09-30T11:46:57.389Z,6.80
2022-09-30T11:49:37.549Z,5.63
2022-09-30T11:52:19.924Z,6.03
2022-09-30T11:55:13.000Z,4.53
2022-09-30T11:58:39.855Z,6.45
2022-09-30T12:01:10.520Z,4.63
2022-09-30T12:03:42.440Z,5.07
2022-09-30T12:06:27.713Z,7.90
2022-09-30T12:09:02.700Z,4.25
2022-09-30T12:11:44.035Z,4.63
2022-09-30T12:14:21.374Z,4.45
2022-09-30T12:16:49.104Z,4.93
2022-09-30T12:19:37.881Z,6.22
2022-09-30T12:22:16.302Z,5.28
2022-09-30T12:24:45.840Z,5.40
2022-09-30T12:27:22.474Z,7.97
2022-09-30T12:30:17.065Z,6.55
2022-09-30T12:33:14.223Z,3.88
2022-09-30T12:35:52.289Z,3.85
2022-09-30T12:38:27.887Z,4.32
2022-09-30T12:41:25.188Z,5.47
2022-09-30T12:44:12.280Z,5.05
2022-09-30T12:46:53.307Z,4.15
2022-09-30T12:49:25.101Z,4.47
2022-09-30T12:51:57.627Z,3.72
2022-09-30T12:57:01.265Z,4.18
2022-09-30T12:59:34.592Z,3.67
2022-09-30T13:02:04.345Z,3.65
2022-09-30T13:04:33.289Z,3.88
2022-09-30T13:06:59.811Z,3.20
2022-09-30T13:09:38.162Z,3.83
2022-09-30T13:12:17.234Z,2.60
2022-09-30T13:14:44.005Z,3.72
2022-09-30T13:17:10.495Z,2.60
2022-09-30T13:19:36.962Z,4.35
2022-09-30T13:22:22.804Z,3.00
2022-09-30T13:25:03.085Z,5.80
2022-09-30T13:27:38.617Z,4.47
2022-09-30T13:30:17.291Z,2.72
2022-09-30T13:32:51.529Z,2.88
2022-09-30T13:35:33.912Z,3.30
2022-09-30T13:38:15.309Z,2.58
2022-09-30T13:41:07.734Z,5.50
2022-09-30T13:43:56.543Z,3.42
2022-09-30T13:46:28.289Z,3.40
2022-09-30T13:49:00.917Z,3.42
2022-09-30T13:51:33.215Z,2.40
2022-09-30T13:54:08.437Z,3.83
2022-09-30T13:56:37.591Z,11.65
2022-09-30T13:59:16.102Z,6.75
2022-09-30T14:02:00.857Z,3.28
2022-09-30T14:04:43.134Z,4.65
2022-09-30T14:07:47.239Z,3.47
2022-09-30T14:10:33.508Z,6.97
2022-09-30T14:13:28.413Z,3.58
2022-09-30T14:16:12.950Z,3.35
2022-09-30T14:19:06.188Z,3.92
2022-09-30T14:21:54.436Z,4.07
2022-09-30T14:24:27.336Z,4.55
2022-09-30T14:27:15.791Z,5.43
2022-09-30T14:30:00.581Z,3.35
2022-09-30T14:32:30.978Z,3.45
2022-09-30T14:34:59.823Z,3.42
2022-09-30T14:37:32.043Z,4.00
2022-09-30T14:39:58.839Z,3.58
2022-09-30T14:42:38.831Z,3.97
2022-09-30T14:45:08.040Z,4.03
2022-09-30T14:47:39.391Z,5.38
2022-09-30T14:50:16.714Z,3.55
2022-09-30T14:52:46.012Z,5.30
2022-09-30T14:55:30.705Z,4.40
2022-09-30T14:58:21.805Z,4.07
2022-09-30T15:01:00.798Z,3.90
2022-09-30T15:03:28.617Z,5.15
2022-09-30T15:05:57.023Z,3.78
2022-09-30T15:08:24.390Z,4.40
2022-09-30T15:10:55.654Z,5.68
2022-09-30T15:13:27.892Z,4.20
2022-09-30T15:15:54.604Z,5.45
2022-09-30T15:18:25.466Z,5.55
2022-09-30T15:20:55.146Z,3.20
2022-09-30T15:23:26.372Z,4.03
2022-09-30T15:25:53.961Z,5.97
2022-09-30T15:28:20.633Z,5.03
2022-09-30T15:30:47.420Z,4.68
2022-09-30T15:33:20.496Z,14.35
2022-09-30T15:35:47.164Z,5.28
2022-09-30T15:38:21.566Z,6.90
2022-09-30T15:40:59.048Z,4.35
2022-09-30T15:43:51.918Z,3.75
2022-09-30T15:46:27.693Z,4.70
2022-09-30T15:48:58.900Z,3.53
2022-09-30T15:51:33.353Z,3.83
2022-09-30T15:54:21.196Z,3.55
2022-09-30T15:56:47.768Z,5.90
2022-09-30T15:59:14.875Z,4.25
2022-09-30T16:01:50.136Z,4.20
2022-09-30T16:04:16.603Z,3.63
2022-09-30T16:06:56.088Z,4.80
2022-09-30T16:09:29.050Z,5.15
2022-09-30T16:12:06.255Z,4.60
2022-09-30T16:15:00.019Z,7.60
2022-09-30T16:17:30.199Z,3.17
2022-09-30T16:20:08.646Z,4.78
2022-09-30T16:22:41.299Z,5.72
2022-09-30T16:25:10.940Z,5.15
2022-09-30T16:27:38.609Z,4.30
2022-09-30T16:30:06.660Z,3.60
2022-09-30T16:32:37.284Z,4.50
2022-09-30T16:35:05.398Z,2.85
2022-09-30T16:37:31.985Z,6.55
2022-09-30T16:40:15.473Z,5.55
2022-09-30T16:42:42.077Z,3.60
2022-09-30T16:45:11.866Z,3.35
2022-09-30T16:47:38.433Z,3.15
2022-09-30T16:50:32.481Z,3.15
2022-09-30T16:52:59.313Z,4.95
2022-09-30T16:55:26.808Z,4.20
2022-09-30T16:57:57.235Z,3.45
2022-09-30T17:00:24.545Z,3.20
2022-09-30T17:02:51.151Z,5.07
2022-09-30T17:05:21.586Z,5.32
2022-09-30T17:07:53.101Z,5.03
2022-09-30T17:10:24.547Z,5.32
2022-09-30T17:12:51.711Z,4.47
2022-09-30T17:15:19.857Z,4.55
2022-09-30T17:17:47.183Z,6.22
2022-09-30T17:20:14.589Z,3.20
2022-09-30T17:22:41.492Z,2.85
2022-09-30T17:25:10.295Z,3.22
2022-09-30T17:27:37.379Z,4.20
2022-09-30T17:30:05.908Z,2.33
2022-09-30T17:32:32.495Z,5.30
2022-09-30T17:34:59.048Z,5.13
2022-09-30T17:37:27.136Z,4.78
2022-09-30T17:39:53.908Z,5.07
2022-09-30T17:42:38.768Z,5.57
2022-09-30T17:45:05.641Z,3.90
2022-09-30T17:47:32.162Z,4.40
2022-09-30T17:49:59.656Z,3.38
2022-09-30T17:52:26.494Z,4.05
2022-09-30T17:54:53.075Z,3.85
2022-09-30T17:57:20.918Z,7.68
2022-09-30T17:59:47.476Z,5.47
2022-09-30T18:02:17.544Z,4.00
2022-09-30T18:04:44.848Z,5.00
2022-09-30T18:07:12.726Z,5.22
2022-09-30T18:09:39.933Z,5.13
2022-09-30T18:12:07.478Z,4.60
2022-09-30T18:14:38.442Z,4.18
2022-09-30T18:17:06.994Z,6.85
2022-09-30T18:19:35.488Z,5.03
2022-09-30T18:22:02.749Z,7.22
2022-09-30T18:24:55.378Z,6.05
2022-09-30T18:27:22.775Z,6.50
2022-09-30T18:29:49.640Z,4.18
2022-09-30T18:32:17.576Z,11.95
2022-09-30T18:34:44.201Z,4.25
2022-09-30T18:37:10.733Z,6.18
2022-09-30T18:39:38.200Z,6.53
2022-09-30T18:42:05.121Z,8.32
2022-09-30T18:44:32.639Z,5.65
2022-09-30T18:46:59.938Z,6.15
2022-09-30T18:49:26.456Z,6.65
2022-09-30T18:51:52.981Z,5.32
2022-09-30T18:54:19.556Z,6.95
2022-09-30T18:56:46.418Z,5.65
2022-09-30T18:59:18.166Z,4.45
2022-09-30T19:01:48.312Z,6.38
2022-09-30T19:04:15.368Z,5.85
2022-09-30T19:06:47.558Z,5.20
2022-09-30T19:09:16.418Z,8.17
2022-09-30T19:11:44.880Z,7.22
2022-09-30T19:14:12.599Z,8.23
2022-09-30T19:16:40.447Z,6.30
2022-09-30T19:19:11.907Z,4.10
2022-09-30T19:21:39.386Z,3.47
2022-09-30T19:24:08.400Z,5.60
2022-09-30T19:26:37.230Z,6.57
2022-09-30T19:29:05.608Z,5.10
2022-09-30T19:31:33.959Z,8.25
2022-09-30T19:34:01.679Z,5.68
2022-09-30T19:36:28.974Z,5.38
2022-09-30T19:39:11.514Z,4.20
2022-09-30T19:41:38.824Z,4.90
2022-09-30T19:44:05.368Z,5.88
2022-09-30T19:46:31.952Z,7.90
2022-09-30T19:48:58.555Z,6.20
2022-09-30T19:51:25.389Z,5.20
2022-09-30T19:54:03.150Z,5.47
2022-09-30T19:56:33.198Z,5.20
2022-09-30T19:59:00.705Z,5.97
2022-09-30T20:01:29.302Z,5.88
2022-09-30T20:04:04.818Z,6.75
2022-09-30T20:06:32.574Z,5.38
2022-09-30T20:09:00.952Z,4.88
2022-09-30T20:11:36.092Z,4.50
2022-09-30T20:14:24.270Z,4.10
2022-09-30T20:16:51.604Z,3.90
2022-09-30T20:19:19.064Z,7.57
2022-09-30T20:21:46.485Z,4.22
2022-09-30T20:24:15.545Z,4.32
2022-09-30T20:26:43.933Z,7.18
2022-09-30T20:29:11.345Z,8.00
2022-09-30T20:31:41.089Z,6.97
2022-09-30T20:34:09.451Z,4.53
2022-09-30T20:36:36.479Z,7.93
2022-09-30T20:39:03.632Z,4.53
2022-09-30T20:41:35.027Z,5.53
2022-09-30T20:44:06.713Z,4.82
2022-09-30T20:46:34.215Z,6.57
2022-09-30T20:49:01.296Z,3.63
2022-09-30T20:51:30.407Z,4.28
2022-09-30T20:53:58.979Z,4.32
2022-09-30T20:56:28.472Z,5.80
2022-09-30T20:58:59.362Z,5.35
2022-09-30T21:01:26.146Z,4.68
2022-09-30T21:03:53.957Z,4.07
2022-09-30T21:06:30.354Z,6.97
2022-09-30T21:08:57.415Z,3.20
2022-09-30T21:11:24.416Z,5.82
2022-09-30T21:13:53.189Z,4.97
2022-09-30T21:16:22.416Z,5.40
2022-09-30T21:18:53.231Z,4.50
2022-09-30T21:21:24.674Z,4.22
2022-09-30T21:23:55.347Z,8.68
2022-09-30T21:26:21.884Z,4.68
2022-09-30T21:28:50.733Z,6.25
2022-09-30T21:31:22.777Z,4.47
2022-09-30T21:33:53.635Z,4.85
2022-09-30T21:36:21.363Z,4.50
2022-09-30T21:38:48.697Z,3.15
2022-09-30T21:41:15.904Z,3.38
2022-09-30T21:43:43.864Z,3.40
2022-09-30T21:46:13.603Z,4.28
2022-09-30T21:48:40.960Z,4.22
2022-09-30T21:51:08.184Z,3.35
2022-09-30T21:53:34.821Z,2.88
2022-09-30T21:56:03.568Z,6.97
2022-09-30T21:58:32.067Z,5.03
2022-09-30T22:01:04.426Z,4.60
2022-09-30T22:03:37.298Z,5.32
2022-09-30T22:06:07.150Z,3.45
2022-09-30T22:08:40.797Z,2.83
2022-09-30T22:11:19.940Z,3.08
2022-09-30T22:13:47.071Z,3.90
2022-09-30T22:16:19.720Z,5.43
2022-09-30T22:18:46.477Z,4.32
2022-09-30T22:21:14.522Z,4.65
2022-09-30T22:23:41.584Z,5.60
2022-09-30T22:26:08.693Z,4.65
2022-09-30T22:28:36.486Z,4.35
2022-09-30T22:31:20.261Z,3.38
2022-09-30T22:34:10.335Z,3.97
2022-09-30T22:36:57.478Z,3.83
2022-09-30T22:39:24.996Z,3.42
2022-09-30T22:41:55.663Z,4.43
2022-09-30T22:44:25.638Z,3.85
2022-09-30T22:46:57.643Z,4.07
2022-09-30T22:49:24.686Z,3.92
2022-09-30T22:51:57.543Z,2.92
2022-09-30T22:54:26.075Z,5.40
2022-09-30T22:56:54.873Z,3.97
2022-09-30T22:59:23.559Z,4.50
2022-09-30T23:01:50.613Z,4.13
2022-09-30T23:04:18.268Z,3.40
2022-09-30T23:06:48.394Z,2.85
2022-09-30T23:09:15.728Z,3.08
2022-09-30T23:11:42.472Z,4.57
2022-09-30T23:14:10.017Z,4.57
2022-09-30T23:16:36.796Z,3.63
2022-09-30T23:19:03.741Z,3.40
2022-09-30T23:21:31.143Z,3.80
2022-09-30T23:23:58.118Z,3.83
2022-09-30T23:26:27.217Z,3.97
2022-09-30T23:28:58.635Z,3.03
2022-09-30T23:31:25.641Z,3.00
2022-09-30T23:33:55.540Z,4.57
2022-09-30T23:36:26.965Z,4.13
2022-09-30T23:38:53.974Z,3.28
2022-09-30T23:41:21.421Z,4.15
2022-09-30T23:43:48.730Z,3.28
2022-09-30T23:46:17.953Z,5.72
2022-09-30T23:48:46.013Z,5.55
2022-09-30T23:51:13.981Z,4.57
2022-09-30T23:53:42.463Z,2.78
2022-09-30T23:56:15.450Z,3.00
